sensor_id;sensor_type;location;lat;lon;timestamp;pressure;altitude;pressure_sealevel;temperature;humidity
48553;BME280;34335;51.566;6.994;2023-04-27T00:02:18;101407.59;;;4.81;100.00
48553;BME280;34335;51.566;6.994;2023-04-27T00:04:43;101411.69;;;4.75;100.00
48553;BME280;34335;51.566;6.994;2023-04-27T00:07:08;101410.75;;;4.73;100.00
48553;BME280;34335;51.566;6.994;2023-04-27T00:09:34;101408.88;;;4.68;100.00
48553;BME280;34335;51.566;6.994;2023-04-27T00:11:59;101411.38;;;4.65;100.00
48553;BME280;34335;51.566;6.994;2023-04-27T00:14:25;101413.78;;;4.61;100.00
48553;BME280;34335;51.566;6.994;2023-04-27T00:16:52;101416.19;;;4.56;100.00
48553;BME280;34335;51.566;6.994;2023-04-27T00:19:17;101425.50;;;4.52;100.00
48553;BME280;34335;51.566;6.994;2023-04-27T00:21:43;101427.91;;;4.48;100.00
48553;BME280;34335;51.566;6.994;2023-04-27T00:24:08;101426.88;;;4.43;100.00
48553;BME280;34335;51.566;6.994;2023-04-27T00:26:34;101423.28;;;4.38;100.00
48553;BME280;34335;51.566;6.994;2023-04-27T00:28:59;101428.44;;;4.38;100.00
48553;BME280;34335;51.566;6.994;2023-04-27T00:31:24;101424.78;;;4.32;100.00
48553;BME280;34335;51.566;6.994;2023-04-27T00:33:50;101423.75;;;4.27;100.00
48553;BME280;34335;51.566;6.994;2023-04-27T00:36:15;101424.47;;;4.23;100.00
48553;BME280;34335;51.566;6.994;2023-04-27T00:38:40;101422.69;;;4.22;100.00
48553;BME280;34335;51.566;6.994;2023-04-27T00:41:06;101425.84;;;4.13;100.00
48553;BME280;34335;51.566;6.994;2023-04-27T00:43:40;101430.88;;;4.10;100.00
48553;BME280;34335;51.566;6.994;2023-04-27T00:46:05;101434.91;;;4.03;100.00
48553;BME280;34335;51.566;6.994;2023-04-27T00:48:31;101439.88;;;3.99;100.00
48553;BME280;34335;51.566;6.994;2023-04-27T00:50:56;101431.97;;;3.94;100.00
48553;BME280;34335;51.566;6.994;2023-04-27T00:53:21;101434.38;;;3.89;100.00
48553;BME280;34335;51.566;6.994;2023-04-27T00:55:47;101435.97;;;3.86;100.00
48553;BME280;34335;51.566;6.994;2023-04-27T00:58:12;101440.03;;;3.81;100.00
48553;BME280;34335;51.566;6.994;2023-04-27T01:00:38;101444.38;;;3.82;100.00
48553;BME280;34335;51.566;6.994;2023-04-27T01:03:05;101445.63;;;3.70;100.00
48553;BME280;34335;51.566;6.994;2023-04-27T01:05:31;101441.88;;;3.62;100.00
48553;BME280;34335;51.566;6.994;2023-04-27T01:07:56;101457.59;;;3.47;100.00
48553;BME280;34335;51.566;6.994;2023-04-27T01:10:21;101462.00;;;3.50;100.00
48553;BME280;34335;51.566;6.994;2023-04-27T01:12:47;101458.47;;;3.48;100.00
48553;BME280;34335;51.566;6.994;2023-04-27T01:15:12;101454.34;;;3.51;100.00
48553;BME280;34335;51.566;6.994;2023-04-27T01:17:37;101457.72;;;3.50;100.00
48553;BME280;34335;51.566;6.994;2023-04-27T01:20:03;101452.22;;;3.41;100.00
48553;BME280;34335;51.566;6.994;2023-04-27T01:22:31;101451.09;;;3.34;100.00
48553;BME280;34335;51.566;6.994;2023-04-27T01:24:56;101458.69;;;3.31;100.00
48553;BME280;34335;51.566;6.994;2023-04-27T01:27:22;101451.59;;;3.25;100.00
48553;BME280;34335;51.566;6.994;2023-04-27T01:29:47;101459.38;;;3.27;100.00
48553;BME280;34335;51.566;6.994;2023-04-27T01:32:13;101453.22;;;3.23;100.00
48553;BME280;34335;51.566;6.994;2023-04-27T01:34:38;101461.59;;;3.19;100.00
48553;BME280;34335;51.566;6.994;2023-04-27T01:37:03;101465.66;;;3.13;100.00
48553;BME280;34335;51.566;6.994;2023-04-27T01:39:28;101467.25;;;3.10;100.00
48553;BME280;34335;51.566;6.994;2023-04-27T01:41:54;101461.03;;;3.05;100.00
48553;BME280;34335;51.566;6.994;2023-04-27T01:44:19;101462.34;;;2.95;100.00
48553;BME280;34335;51.566;6.994;2023-04-27T01:46:46;101456.28;;;2.93;100.00
48553;BME280;34335;51.566;6.994;2023-04-27T01:49:12;101464.66;;;2.89;100.00
48553;BME280;34335;51.566;6.994;2023-04-27T01:51:37;101462.78;;;2.85;100.00
48553;BME280;34335;51.566;6.994;2023-04-27T01:54:02;101466.75;;;2.78;100.00
48553;BME280;34335;51.566;6.994;2023-04-27T01:56:27;101467.56;;;2.77;100.00
48553;BME280;34335;51.566;6.994;2023-04-27T01:58:53;101467.56;;;2.77;100.00
48553;BME280;34335;51.566;6.994;2023-04-27T02:01:18;101470.19;;;2.79;100.00
48553;BME280;34335;51.566;6.994;2023-04-27T02:03:43;101475.44;;;2.80;100.00
48553;BME280;34335;51.566;6.994;2023-04-27T02:06:09;101474.31;;;2.75;100.00
48553;BME280;34335;51.566;6.994;2023-04-27T02:08:34;101475.13;;;2.74;100.00
48553;BME280;34335;51.566;6.994;2023-04-27T02:11:00;101474.94;;;2.70;100.00
48553;BME280;34335;51.566;6.994;2023-04-27T02:13:25;101471.50;;;2.69;100.00
48553;BME280;34335;51.566;6.994;2023-04-27T02:15:50;101472.47;;;2.71;100.00
48553;BME280;34335;51.566;6.994;2023-04-27T02:18:16;101473.28;;;2.70;100.00
48553;BME280;34335;51.566;6.994;2023-04-27T02:20:42;101462.19;;;2.71;100.00
48553;BME280;34335;51.566;6.994;2023-04-27T02:23:08;101475.88;;;2.72;100.00
48553;BME280;34335;51.566;6.994;2023-04-27T02:25:35;101461.97;;;2.67;100.00
48553;BME280;34335;51.566;6.994;2023-04-27T02:28:01;101471.44;;;2.68;100.00
48553;BME280;34335;51.566;6.994;2023-04-27T02:30:26;101457.59;;;2.64;100.00
48553;BME280;34335;51.566;6.994;2023-04-27T02:32:52;101465.31;;;2.64;100.00
48553;BME280;34335;51.566;6.994;2023-04-27T02:35:17;101461.78;;;2.62;100.00
48553;BME280;34335;51.566;6.994;2023-04-27T02:37:42;101456.75;;;2.65;100.00
48553;BME280;34335;51.566;6.994;2023-04-27T02:40:08;101458.53;;;2.66;100.00
48553;BME280;34335;51.566;6.994;2023-04-27T02:42:34;101448.81;;;2.59;100.00
48553;BME280;34335;51.566;6.994;2023-04-27T02:44:59;101455.63;;;2.58;100.00
48553;BME280;34335;51.566;6.994;2023-04-27T02:47:25;101447.78;;;2.55;100.00
48553;BME280;34335;51.566;6.994;2023-04-27T02:49:50;101452.06;;;2.55;100.00
48553;BME280;34335;51.566;6.994;2023-04-27T02:52:16;101460.03;;;2.61;100.00
48553;BME280;34335;51.566;6.994;2023-04-27T02:54:42;101457.19;;;2.55;100.00
48553;BME280;34335;51.566;6.994;2023-04-27T02:57:07;101453.75;;;2.54;100.00
48553;BME280;34335;51.566;6.994;2023-04-27T02:59:32;101453.59;;;2.51;100.00
48553;BME280;34335;51.566;6.994;2023-04-27T03:01:57;101446.84;;;2.53;100.00
48553;BME280;34335;51.566;6.994;2023-04-27T03:04:23;101447.44;;;2.47;100.00
48553;BME280;34335;51.566;6.994;2023-04-27T03:06:48;101436.84;;;2.40;100.00
48553;BME280;34335;51.566;6.994;2023-04-27T03:09:13;101432.03;;;2.47;100.00
48553;BME280;34335;51.566;6.994;2023-04-27T03:11:39;101434.09;;;2.35;100.00
48553;BME280;34335;51.566;6.994;2023-04-27T03:14:04;101425.50;;;2.34;100.00
48553;BME280;34335;51.566;6.994;2023-04-27T03:16:34;101426.50;;;2.38;100.00
48553;BME280;34335;51.566;6.994;2023-04-27T03:18:59;101429.75;;;2.34;100.00
48553;BME280;34335;51.566;6.994;2023-04-27T03:21:26;101435.63;;;2.31;100.00
48553;BME280;34335;51.566;6.994;2023-04-27T03:23:52;101437.06;;;2.25;100.00
48553;BME280;34335;51.566;6.994;2023-04-27T03:26:17;101434.19;;;2.18;100.00
48553;BME280;34335;51.566;6.994;2023-04-27T03:28:43;101435.75;;;2.15;100.00
48553;BME280;34335;51.566;6.994;2023-04-27T03:31:10;101443.78;;;2.03;100.00
48553;BME280;34335;51.566;6.994;2023-04-27T03:33:36;101440.41;;;2.04;100.00
48553;BME280;34335;51.566;6.994;2023-04-27T03:36:02;101440.53;;;2.07;100.00
48553;BME280;34335;51.566;6.994;2023-04-27T03:38:28;101443.50;;;1.97;100.00
48553;BME280;34335;51.566;6.994;2023-04-27T03:40:54;101442.06;;;2.03;100.00
48553;BME280;34335;51.566;6.994;2023-04-27T03:43:19;101443.09;;;2.07;100.00
48553;BME280;34335;51.566;6.994;2023-04-27T03:45:46;101452.09;;;2.17;100.00
48553;BME280;34335;51.566;6.994;2023-04-27T03:48:12;101440.13;;;2.17;100.00
48553;BME280;34335;51.566;6.994;2023-04-27T03:50:38;101449.91;;;2.07;100.00
48553;BME280;34335;51.566;6.994;2023-04-27T03:53:03;101452.69;;;2.11;100.00
48553;BME280;34335;51.566;6.994;2023-04-27T03:55:28;101452.53;;;2.08;100.00
48553;BME280;34335;51.566;6.994;2023-04-27T03:57:53;101454.09;;;2.05;100.00
48553;BME280;34335;51.566;6.994;2023-04-27T04:00:19;101459.91;;;2.00;100.00
48553;BME280;34335;51.566;6.994;2023-04-27T04:02:44;101457.13;;;1.96;100.00
48553;BME280;34335;51.566;6.994;2023-04-27T04:05:11;101459.13;;;1.83;100.00
48553;BME280;34335;51.566;6.994;2023-04-27T04:07:39;101474.13;;;1.76;100.00
48553;BME280;34335;51.566;6.994;2023-04-27T04:10:06;101477.00;;;1.82;100.00
48553;BME280;34335;51.566;6.994;2023-04-27T04:12:32;101486.00;;;1.74;100.00
48553;BME280;34335;51.566;6.994;2023-04-27T04:14:57;101482.28;;;1.67;100.00
48553;BME280;34335;51.566;6.994;2023-04-27T04:17:22;101477.88;;;1.64;100.00
48553;BME280;34335;51.566;6.994;2023-04-27T04:19:48;101479.28;;;1.76;100.00
48553;BME280;34335;51.566;6.994;2023-04-27T04:22:13;101477.06;;;1.65;100.00
48553;BME280;34335;51.566;6.994;2023-04-27T04:24:38;101479.78;;;1.68;100.00
48553;BME280;34335;51.566;6.994;2023-04-27T04:27:04;101478.84;;;1.66;100.00
48553;BME280;34335;51.566;6.994;2023-04-27T04:29:30;101480.38;;;1.63;100.00
48553;BME280;34335;51.566;6.994;2023-04-27T04:31:55;101479.06;;;1.53;100.00
48553;BME280;34335;51.566;6.994;2023-04-27T04:34:20;101485.66;;;1.66;100.00
48553;BME280;34335;51.566;6.994;2023-04-27T04:36:46;101486.31;;;1.62;100.00
48553;BME280;34335;51.566;6.994;2023-04-27T04:39:15;101485.84;;;1.52;100.00
48553;BME280;34335;51.566;6.994;2023-04-27T04:41:41;101480.44;;;1.46;100.00
48553;BME280;34335;51.566;6.994;2023-04-27T04:44:06;101478.97;;;1.51;100.00
48553;BME280;34335;51.566;6.994;2023-04-27T04:46:32;101481.47;;;1.50;100.00
48553;BME280;34335;51.566;6.994;2023-04-27T04:48:57;101492.66;;;1.34;100.00
48553;BME280;34335;51.566;6.994;2023-04-27T04:51:22;101485.41;;;1.43;100.00
48553;BME280;34335;51.566;6.994;2023-04-27T04:53:48;101481.03;;;1.40;100.00
48553;BME280;34335;51.566;6.994;2023-04-27T04:56:13;101484.41;;;1.58;100.00
48553;BME280;34335;51.566;6.994;2023-04-27T04:58:39;101485.13;;;1.55;100.00
48553;BME280;34335;51.566;6.994;2023-04-27T05:01:05;101482.06;;;1.62;100.00
48553;BME280;34335;51.566;6.994;2023-04-27T05:03:31;101487.53;;;1.70;100.00
48553;BME280;34335;51.566;6.994;2023-04-27T05:05:56;101483.09;;;1.66;100.00
48553;BME280;34335;51.566;6.994;2023-04-27T05:08:21;101489.97;;;1.49;100.00
48553;BME280;34335;51.566;6.994;2023-04-27T05:10:50;101494.78;;;1.61;100.00
48553;BME280;34335;51.566;6.994;2023-04-27T05:13:15;101498.63;;;1.51;100.00
48553;BME280;34335;51.566;6.994;2023-04-27T05:15:41;101499.63;;;1.54;100.00
48553;BME280;34335;51.566;6.994;2023-04-27T05:18:06;101496.56;;;1.62;100.00
48553;BME280;34335;51.566;6.994;2023-04-27T05:20:35;101498.84;;;1.55;100.00
48553;BME280;34335;51.566;6.994;2023-04-27T05:23:00;101507.13;;;1.68;100.00
48553;BME280;34335;51.566;6.994;2023-04-27T05:25:29;101504.78;;;1.54;100.00
48553;BME280;34335;51.566;6.994;2023-04-27T05:27:55;101511.16;;;1.81;100.00
48553;BME280;34335;51.566;6.994;2023-04-27T05:30:20;101512.03;;;1.81;100.00
48553;BME280;34335;51.566;6.994;2023-04-27T05:32:45;101515.41;;;1.98;100.00
48553;BME280;34335;51.566;6.994;2023-04-27T05:35:11;101522.63;;;2.07;100.00
48553;BME280;34335;51.566;6.994;2023-04-27T05:37:36;101528.19;;;2.34;100.00
48553;BME280;34335;51.566;6.994;2023-04-27T05:40:01;101515.91;;;2.47;100.00
48553;BME280;34335;51.566;6.994;2023-04-27T05:42:29;101527.16;;;2.31;100.00
48553;BME280;34335;51.566;6.994;2023-04-27T05:44:54;101526.94;;;2.44;100.00
48553;BME280;34335;51.566;6.994;2023-04-27T05:47:20;101525.84;;;2.59;100.00
48553;BME280;34335;51.566;6.994;2023-04-27T05:49:49;101526.59;;;2.56;100.00
48553;BME280;34335;51.566;6.994;2023-04-27T05:52:15;101520.16;;;2.46;100.00
48553;BME280;34335;51.566;6.994;2023-04-27T05:54:45;101520.88;;;2.82;100.00
48553;BME280;34335;51.566;6.994;2023-04-27T05:57:10;101535.94;;;2.74;100.00
48553;BME280;34335;51.566;6.994;2023-04-27T05:59:36;101525.31;;;2.66;100.00
48553;BME280;34335;51.566;6.994;2023-04-27T06:02:01;101526.59;;;2.76;100.00
48553;BME280;34335;51.566;6.994;2023-04-27T06:04:26;101527.25;;;2.91;100.00
48553;BME280;34335;51.566;6.994;2023-04-27T06:06:52;101536.00;;;3.36;100.00
48553;BME280;34335;51.566;6.994;2023-04-27T06:09:17;101535.34;;;3.20;100.00
48553;BME280;34335;51.566;6.994;2023-04-27T06:11:42;101534.78;;;3.27;100.00
48553;BME280;34335;51.566;6.994;2023-04-27T06:14:07;101535.25;;;3.38;100.00
48553;BME280;34335;51.566;6.994;2023-04-27T06:16:33;101536.22;;;3.40;100.00
48553;BME280;34335;51.566;6.994;2023-04-27T06:18:58;101542.94;;;3.58;100.00
48553;BME280;34335;51.566;6.994;2023-04-27T06:21:24;101543.81;;;3.80;100.00
48553;BME280;34335;51.566;6.994;2023-04-27T06:23:49;101542.47;;;3.89;100.00
48553;BME280;34335;51.566;6.994;2023-04-27T06:26:14;101534.50;;;3.83;100.00
48553;BME280;34335;51.566;6.994;2023-04-27T06:28:40;101537.22;;;4.09;100.00
48553;BME280;34335;51.566;6.994;2023-04-27T06:31:05;101525.22;;;4.10;100.00
48553;BME280;34335;51.566;6.994;2023-04-27T06:33:30;101527.63;;;4.28;100.00
48553;BME280;34335;51.566;6.994;2023-04-27T06:35:56;101532.34;;;4.40;100.00
48553;BME280;34335;51.566;6.994;2023-04-27T06:38:21;101538.44;;;4.42;100.00
48553;BME280;34335;51.566;6.994;2023-04-27T06:40:49;101527.16;;;4.85;100.00
48553;BME280;34335;51.566;6.994;2023-04-27T06:43:15;101525.50;;;4.87;100.00
48553;BME280;34335;51.566;6.994;2023-04-27T06:45:41;101531.22;;;5.03;100.00
48553;BME280;34335;51.566;6.994;2023-04-27T06:48:06;101541.56;;;5.04;100.00
48553;BME280;34335;51.566;6.994;2023-04-27T06:50:32;101526.56;;;5.18;100.00
48553;BME280;34335;51.566;6.994;2023-04-27T06:52:57;101527.50;;;5.20;100.00
48553;BME280;34335;51.566;6.994;2023-04-27T06:55:22;101522.09;;;5.38;100.00
48553;BME280;34335;51.566;6.994;2023-04-27T06:57:47;101529.25;;;5.47;100.00
48553;BME280;34335;51.566;6.994;2023-04-27T07:00:13;101527.34;;;5.67;100.00
48553;BME280;34335;51.566;6.994;2023-04-27T07:02:38;101519.66;;;5.69;100.00
48553;BME280;34335;51.566;6.994;2023-04-27T07:05:04;101517.34;;;5.78;100.00
48553;BME280;34335;51.566;6.994;2023-04-27T07:07:29;101526.84;;;5.79;100.00
48553;BME280;34335;51.566;6.994;2023-04-27T07:09:54;101522.09;;;5.91;100.00
48553;BME280;34335;51.566;6.994;2023-04-27T07:12:20;101515.81;;;6.11;100.00
48553;BME280;34335;51.566;6.994;2023-04-27T07:14:45;101515.09;;;6.15;100.00
48553;BME280;34335;51.566;6.994;2023-04-27T07:17:10;101512.97;;;6.32;100.00
48553;BME280;34335;51.566;6.994;2023-04-27T07:19:36;101511.00;;;6.52;100.00
48553;BME280;34335;51.566;6.994;2023-04-27T07:22:01;101520.63;;;6.58;100.00
48553;BME280;34335;51.566;6.994;2023-04-27T07:24:26;101523.50;;;6.68;100.00
48553;BME280;34335;51.566;6.994;2023-04-27T07:26:51;101521.34;;;6.84;100.00
48553;BME280;34335;51.566;6.994;2023-04-27T07:29:17;101524.00;;;6.85;100.00
48553;BME280;34335;51.566;6.994;2023-04-27T07:31:42;101518.47;;;7.05;100.00
48553;BME280;34335;51.566;6.994;2023-04-27T07:34:07;101517.34;;;7.29;100.00
48553;BME280;34335;51.566;6.994;2023-04-27T07:36:35;101520.63;;;7.22;100.00
48553;BME280;34335;51.566;6.994;2023-04-27T07:39:00;101524.50;;;7.39;96.66
48553;BME280;34335;51.566;6.994;2023-04-27T07:41:26;101516.22;;;7.53;100.00
48553;BME280;34335;51.566;6.994;2023-04-27T07:43:51;101513.16;;;7.69;100.00
48553;BME280;34335;51.566;6.994;2023-04-27T07:46:17;101511.09;;;7.91;100.00
48553;BME280;34335;51.566;6.994;2023-04-27T07:48:42;101505.19;;;7.98;100.00
48553;BME280;34335;51.566;6.994;2023-04-27T07:51:09;101511.59;;;8.13;100.00
48553;BME280;34335;51.566;6.994;2023-04-27T07:53:34;101508.41;;;8.27;98.62
48553;BME280;34335;51.566;6.994;2023-04-27T07:56:00;101521.22;;;8.60;100.00
48553;BME280;34335;51.566;6.994;2023-04-27T07:58:25;101522.72;;;8.48;90.47
48553;BME280;34335;51.566;6.994;2023-04-27T08:00:50;101510.75;;;8.55;96.61
48553;BME280;34335;51.566;6.994;2023-04-27T08:03:16;101518.06;;;8.75;99.48
48553;BME280;34335;51.566;6.994;2023-04-27T08:05:41;101514.72;;;8.80;94.54
48553;BME280;34335;51.566;6.994;2023-04-27T08:08:06;101514.88;;;8.89;88.22
48553;BME280;34335;51.566;6.994;2023-04-27T08:10:32;101508.44;;;9.15;90.44
48553;BME280;34335;51.566;6.994;2023-04-27T08:12:57;101502.41;;;9.16;87.39
48553;BME280;34335;51.566;6.994;2023-04-27T08:15:22;101511.78;;;9.08;74.19
48553;BME280;34335;51.566;6.994;2023-04-27T08:17:47;101507.06;;;9.35;84.25
48553;BME280;34335;51.566;6.994;2023-04-27T08:20:13;101499.72;;;9.63;90.09
48553;BME280;34335;51.566;6.994;2023-04-27T08:22:39;101490.44;;;9.79;85.87
48553;BME280;34335;51.566;6.994;2023-04-27T08:25:06;101499.78;;;9.66;84.75
48553;BME280;34335;51.566;6.994;2023-04-27T08:27:31;101498.59;;;10.06;85.06
48553;BME280;34335;51.566;6.994;2023-04-27T08:29:57;101496.09;;;10.12;84.17
48553;BME280;34335;51.566;6.994;2023-04-27T08:32:24;101496.16;;;10.20;82.30
48553;BME280;34335;51.566;6.994;2023-04-27T08:34:50;101489.53;;;10.39;86.07
48553;BME280;34335;51.566;6.994;2023-04-27T08:37:15;101494.09;;;10.58;82.51
48553;BME280;34335;51.566;6.994;2023-04-27T08:39:42;101491.38;;;10.48;71.38
48553;BME280;34335;51.566;6.994;2023-04-27T08:42:11;101498.56;;;10.70;80.92
48553;BME280;34335;51.566;6.994;2023-04-27T08:44:40;101496.00;;;10.72;67.91
48553;BME280;34335;51.566;6.994;2023-04-27T08:47:06;101486.69;;;10.97;74.62
48553;BME280;34335;51.566;6.994;2023-04-27T08:49:32;101491.09;;;11.00;74.38
48553;BME280;34335;51.566;6.994;2023-04-27T08:51:58;101484.25;;;11.14;77.27
48553;BME280;34335;51.566;6.994;2023-04-27T08:54:23;101487.84;;;11.26;75.47
48553;BME280;34335;51.566;6.994;2023-04-27T08:56:48;101487.88;;;11.29;72.39
48553;BME280;34335;51.566;6.994;2023-04-27T08:59:14;101489.66;;;11.36;72.14
48553;BME280;34335;51.566;6.994;2023-04-27T09:01:47;101493.22;;;11.50;72.48
48553;BME280;34335;51.566;6.994;2023-04-27T09:04:13;101484.69;;;11.70;74.15
48553;BME280;34335;51.566;6.994;2023-04-27T09:06:38;101489.88;;;11.62;68.92
48553;BME280;34335;51.566;6.994;2023-04-27T09:09:04;101490.03;;;11.87;70.96
48553;BME280;34335;51.566;6.994;2023-04-27T09:11:31;101483.16;;;11.97;70.41
48553;BME280;34335;51.566;6.994;2023-04-27T09:13:59;101483.28;;;12.22;70.79
48553;BME280;34335;51.566;6.994;2023-04-27T09:16:26;101474.63;;;12.27;71.13
48553;BME280;34335;51.566;6.994;2023-04-27T09:18:53;101476.06;;;11.77;64.11
48553;BME280;34335;51.566;6.994;2023-04-27T09:21:26;101469.44;;;12.38;71.36
48553;BME280;34335;51.566;6.994;2023-04-27T09:23:52;101472.09;;;12.51;71.82
48553;BME280;34335;51.566;6.994;2023-04-27T09:26:22;101466.88;;;12.44;66.89
48553;BME280;34335;51.566;6.994;2023-04-27T09:28:50;101464.38;;;13.00;78.31
48553;BME280;34335;51.566;6.994;2023-04-27T09:31:15;101466.97;;;12.99;71.80
48553;BME280;34335;51.566;6.994;2023-04-27T09:33:42;101466.09;;;12.86;67.26
48553;BME280;34335;51.566;6.994;2023-04-27T09:36:08;101464.38;;;12.82;63.70
48553;BME280;34335;51.566;6.994;2023-04-27T09:38:33;101461.75;;;12.78;62.01
48553;BME280;34335;51.566;6.994;2023-04-27T09:40:59;101465.25;;;12.90;61.33
48553;BME280;34335;51.566;6.994;2023-04-27T09:43:25;101468.72;;;12.92;59.29
48553;BME280;34335;51.566;6.994;2023-04-27T09:45:53;101463.53;;;13.11;64.46
48553;BME280;34335;51.566;6.994;2023-04-27T09:48:20;101460.91;;;13.18;62.80
48553;BME280;34335;51.566;6.994;2023-04-27T09:50:47;101467.88;;;13.18;54.15
48553;BME280;34335;51.566;6.994;2023-04-27T09:53:18;101467.03;;;13.48;61.26
48553;BME280;34335;51.566;6.994;2023-04-27T09:56:06;101457.47;;;13.44;59.07
48553;BME280;34335;51.566;6.994;2023-04-27T10:01:42;101454.81;;;13.47;52.76
48553;BME280;34335;51.566;6.994;2023-04-27T10:04:44;101444.34;;;13.77;61.16
48553;BME280;34335;51.566;6.994;2023-04-27T10:07:17;101451.19;;;14.23;57.75
48553;BME280;34335;51.566;6.994;2023-04-27T10:09:47;101443.38;;;14.02;59.09
48553;BME280;34335;51.566;6.994;2023-04-27T10:12:41;101444.97;;;14.41;65.54
48553;BME280;34335;51.566;6.994;2023-04-27T10:15:14;101446.75;;;14.34;59.73
48553;BME280;34335;51.566;6.994;2023-04-27T10:17:47;101438.06;;;14.26;57.74
48553;BME280;34335;51.566;6.994;2023-04-27T10:20:13;101438.94;;;14.25;57.59
48553;BME280;34335;51.566;6.994;2023-04-27T10:22:46;101433.59;;;14.43;58.44
48553;BME280;34335;51.566;6.994;2023-04-27T10:25:20;101435.22;;;14.71;60.44
48553;BME280;34335;51.566;6.994;2023-04-27T10:27:51;101428.22;;;14.77;58.15
48553;BME280;34335;51.566;6.994;2023-04-27T10:30:18;101427.25;;;14.89;59.12
48553;BME280;34335;51.566;6.994;2023-04-27T10:33:08;101423.69;;;15.00;58.10
48553;BME280;34335;51.566;6.994;2023-04-27T10:35:37;101423.75;;;14.87;58.51
48553;BME280;34335;51.566;6.994;2023-04-27T10:38:20;101416.13;;;14.50;46.11
48553;BME280;34335;51.566;6.994;2023-04-27T10:41:01;101419.34;;;15.00;54.72
48553;BME280;34335;51.566;6.994;2023-04-27T10:43:30;101409.41;;;15.33;57.98
48553;BME280;34335;51.566;6.994;2023-04-27T10:46:10;101409.53;;;15.19;46.79
48553;BME280;34335;51.566;6.994;2023-04-27T10:48:38;101413.41;;;14.72;49.63
48553;BME280;34335;51.566;6.994;2023-04-27T10:51:03;101405.59;;;15.64;58.13
48553;BME280;34335;51.566;6.994;2023-04-27T10:53:35;101419.56;;;15.66;53.21
48553;BME280;34335;51.566;6.994;2023-04-27T10:56:02;101412.41;;;15.85;57.11
48553;BME280;34335;51.566;6.994;2023-04-27T10:58:30;101414.06;;;15.02;46.47
48553;BME280;34335;51.566;6.994;2023-04-27T11:00:56;101408.16;;;15.71;48.45
48553;BME280;34335;51.566;6.994;2023-04-27T11:03:22;101411.63;;;15.73;48.03
48553;BME280;34335;51.566;6.994;2023-04-27T11:05:59;101401.09;;;16.48;58.00
48553;BME280;34335;51.566;6.994;2023-04-27T11:08:25;101396.59;;;15.91;46.83
48553;BME280;34335;51.566;6.994;2023-04-27T11:10:51;101404.53;;;15.85;48.71
48553;BME280;34335;51.566;6.994;2023-04-27T11:13:21;101405.34;;;15.92;51.34
48553;BME280;34335;51.566;6.994;2023-04-27T11:15:48;101402.44;;;16.13;47.36
48553;BME280;34335;51.566;6.994;2023-04-27T11:18:15;101404.41;;;15.08;47.58
48553;BME280;34335;51.566;6.994;2023-04-27T11:20:43;101397.69;;;16.40;54.07
48553;BME280;34335;51.566;6.994;2023-04-27T11:23:08;101411.38;;;15.11;38.01
48553;BME280;34335;51.566;6.994;2023-04-27T11:25:36;101393.63;;;16.19;53.47
48553;BME280;34335;51.566;6.994;2023-04-27T11:28:01;101395.41;;;16.78;44.21
48553;BME280;34335;51.566;6.994;2023-04-27T11:30:28;101394.31;;;16.91;47.43
48553;BME280;34335;51.566;6.994;2023-04-27T11:32:53;101396.47;;;16.64;51.17
48553;BME280;34335;51.566;6.994;2023-04-27T11:35:19;101392.06;;;17.23;55.49
48553;BME280;34335;51.566;6.994;2023-04-27T11:37:55;101406.44;;;16.41;39.73
48553;BME280;34335;51.566;6.994;2023-04-27T11:40:22;101391.75;;;16.87;53.15
48553;BME280;34335;51.566;6.994;2023-04-27T11:42:55;101392.91;;;16.69;45.33
48553;BME280;34335;51.566;6.994;2023-04-27T11:45:24;101394.19;;;17.51;52.48
48553;BME280;34335;51.566;6.994;2023-04-27T11:47:50;101395.91;;;17.52;49.08
48553;BME280;34335;51.566;6.994;2023-04-27T11:50:15;101395.63;;;17.19;38.75
48553;BME280;34335;51.566;6.994;2023-04-27T11:52:40;101392.13;;;17.18;46.14
48553;BME280;34335;51.566;6.994;2023-04-27T11:55:06;101383.72;;;17.48;45.86
48553;BME280;34335;51.566;6.994;2023-04-27T11:57:35;101379.81;;;17.67;43.23
48553;BME280;34335;51.566;6.994;2023-04-27T12:00:02;101375.81;;;17.91;48.88
48553;BME280;34335;51.566;6.994;2023-04-27T12:02:35;101375.91;;;17.87;49.79
48553;BME280;34335;51.566;6.994;2023-04-27T12:05:02;101370.69;;;16.33;37.51
48553;BME280;34335;51.566;6.994;2023-04-27T12:07:27;101358.03;;;17.60;51.16
48553;BME280;34335;51.566;6.994;2023-04-27T12:09:52;101362.88;;;17.82;47.09
48553;BME280;34335;51.566;6.994;2023-04-27T12:12:18;101351.09;;;18.02;47.80
48553;BME280;34335;51.566;6.994;2023-04-27T12:14:46;101353.31;;;17.78;41.86
48553;BME280;34335;51.566;6.994;2023-04-27T12:17:12;101358.97;;;18.41;42.80
48553;BME280;34335;51.566;6.994;2023-04-27T12:19:37;101357.38;;;18.72;46.59
48553;BME280;34335;51.566;6.994;2023-04-27T12:22:02;101358.22;;;18.74;45.05
48553;BME280;34335;51.566;6.994;2023-04-27T12:24:28;101358.69;;;18.16;34.71
48553;BME280;34335;51.566;6.994;2023-04-27T12:26:54;101352.44;;;18.58;43.85
48553;BME280;34335;51.566;6.994;2023-04-27T12:29:19;101352.44;;;18.59;45.20
48553;BME280;34335;51.566;6.994;2023-04-27T12:31:45;101358.16;;;18.39;39.09
48553;BME280;34335;51.566;6.994;2023-04-27T12:34:10;101351.03;;;17.14;42.70
48553;BME280;34335;51.566;6.994;2023-04-27T12:36:36;101348.69;;;18.68;46.32
48553;BME280;34335;51.566;6.994;2023-04-27T12:39:31;101355.25;;;19.22;46.59
48553;BME280;34335;51.566;6.994;2023-04-27T12:41:56;101348.91;;;18.60;45.75
48553;BME280;34335;51.566;6.994;2023-04-27T12:44:22;101338.31;;;19.62;43.34
48553;BME280;34335;51.566;6.994;2023-04-27T12:46:48;101334.84;;;19.60;45.92
48553;BME280;34335;51.566;6.994;2023-04-27T12:49:15;101325.84;;;19.68;45.21
48553;BME280;34335;51.566;6.994;2023-04-27T12:51:41;101329.50;;;18.99;37.83